createdAt,value
2018-01-23T00:06:54.611Z,0
2018-01-23T00:16:54.526Z,0
2018-01-23T00:26:54.650Z,0
2018-01-23T00:36:54.467Z,0
2018-01-23T00:46:54.559Z,0
2018-01-23T00:56:54.539Z,0
2018-01-23T01:06:54.557Z,0
2018-01-23T01:16:54.579Z,0
2018-01-23T01:26:54.826Z,0
2018-01-23T01:36:55.599Z,0
2018-01-23T01:46:54.538Z,0
2018-01-23T01:56:54.658Z,0
2018-01-23T02:06:55.562Z,0
2018-01-23T02:16:54.521Z,0
2018-01-23T02:26:55.596Z,0
2018-01-23T02:36:54.530Z,0
2018-01-23T02:46:54.525Z,0
2018-01-23T02:56:54.649Z,0
2018-01-23T03:06:54.646Z,0
2018-01-23T03:16:54.740Z,0
2018-01-23T03:26:54.669Z,0
2018-01-23T03:36:54.566Z,0
2018-01-23T03:46:54.663Z,0
2018-01-23T03:56:54.636Z,0
2018-01-23T04:06:54.706Z,0
2018-01-23T04:16:54.612Z,0
2018-01-23T04:26:54.755Z,0
2018-01-23T04:36:54.636Z,0
2018-01-23T04:46:54.764Z,0
2018-01-23T04:56:54.706Z,0
2018-01-23T05:06:54.754Z,0
2018-01-23T05:16:54.728Z,0
2018-01-23T05:26:54.813Z,0
2018-01-23T05:36:54.734Z,0
2018-01-23T05:46:54.716Z,0
2018-01-23T05:56:54.757Z,0
2018-01-23T06:06:54.798Z,0
2018-01-23T06:16:54.892Z,0
2018-01-23T06:26:54.827Z,0
2018-01-23T06:36:54.772Z,0
2018-01-23T06:46:54.849Z,0
2018-01-23T06:56:54.813Z,0
2018-01-23T07:06:55.352Z,0
2018-01-23T07:16:54.832Z,0
2018-01-23T07:26:54.900Z,0
2018-01-23T07:36:54.919Z,5
2018-01-23T07:46:55.103Z,10
2018-01-23T07:56:54.888Z,15
2018-01-23T08:06:54.886Z,20
2018-01-23T08:16:54.875Z,20
2018-01-23T08:26:54.905Z,25
2018-01-23T08:36:54.879Z,35
2018-01-23T08:46:54.893Z,35
2018-01-23T08:56:54.895Z,40
2018-01-23T09:06:54.914Z,50
2018-01-23T09:16:54.957Z,45
2018-01-23T09:26:54.905Z,50
2018-01-23T09:36:54.973Z,60
2018-01-23T09:46:54.970Z,70
2018-01-23T09:56:55.020Z,80
2018-01-23T10:06:54.974Z,70
2018-01-23T10:16:54.901Z,75
2018-01-23T10:26:55.038Z,90
2018-01-23T10:36:54.963Z,95
2018-01-23T10:46:55.078Z,90
2018-01-23T10:56:55.020Z,95
2018-01-23T11:06:55.074Z,90
2018-01-23T11:16:55.016Z,85
2018-01-23T11:26:55.072Z,90
2018-01-23T11:36:55.049Z,70
2018-01-23T11:46:55.043Z,70
2018-01-23T11:56:55.043Z,90
2018-01-23T12:06:55.124Z,110
2018-01-23T12:16:55.073Z,120
2018-01-23T12:26:55.161Z,125
2018-01-23T12:36:55.208Z,90
2018-01-23T12:46:55.199Z,90
2018-01-23T12:56:55.253Z,110
2018-01-23T13:06:55.378Z,100
2018-01-23T13:16:55.107Z,100
2018-01-23T13:26:55.170Z,95
2018-01-23T13:36:55.334Z,110
2018-01-23T13:46:55.318Z,85
2018-01-23T13:56:55.263Z,80
2018-01-23T14:06:55.295Z,80
2018-01-23T14:16:55.273Z,65
2018-01-23T14:26:55.320Z,55
2018-01-23T14:36:55.301Z,55
2018-01-23T14:46:55.305Z,40
2018-01-23T14:56:55.266Z,30
2018-01-23T15:06:55.270Z,25
2018-01-23T15:16:55.310Z,20
2018-01-23T15:26:55.378Z,20
2018-01-23T15:36:55.330Z,10
2018-01-23T15:46:55.393Z,5
2018-01-23T15:56:55.358Z,0
2018-01-23T16:06:55.362Z,0
2018-01-23T16:16:55.412Z,0
2018-01-23T16:26:55.436Z,0
2018-01-23T16:36:55.387Z,0
2018-01-23T16:46:55.396Z,0
2018-01-23T16:56:55.353Z,0
2018-01-23T17:06:55.344Z,0
2018-01-23T17:16:55.376Z,0
2018-01-23T17:26:55.349Z,0
2018-01-23T17:36:55.453Z,0
2018-01-23T17:46:55.403Z,0
2018-01-23T17:56:55.553Z,0
2018-01-23T18:06:55.424Z,0
2018-01-23T18:16:55.469Z,0
2018-01-23T18:26:55.572Z,0
2018-01-23T18:36:55.511Z,0
2018-01-23T18:46:55.469Z,0
2018-01-23T18:56:55.551Z,0
2018-01-23T19:06:55.480Z,0
2018-01-23T19:16:57.217Z,0
2018-01-23T19:26:55.476Z,0
2018-01-23T19:36:56.953Z,0
2018-01-23T19:46:57.385Z,0
2018-01-23T19:56:56.347Z,0
2018-01-23T20:06:57.885Z,0
2018-01-23T20:16:57.820Z,0
2018-01-23T20:26:57.592Z,0
2018-01-23T20:36:55.695Z,0
2018-01-23T20:46:55.584Z,0
2018-01-23T20:56:56.230Z,0
2018-01-23T21:11:14.043Z,0
2018-01-23T21:16:55.624Z,0
2018-01-23T21:26:55.738Z,0
2018-01-23T21:36:55.810Z,0
2018-01-23T21:46:55.706Z,0
2018-01-23T21:56:55.818Z,0
2018-01-23T22:07:32.851Z,0
2018-01-23T22:17:06.187Z,0
2018-01-23T22:26:55.624Z,0
2018-01-23T22:36:55.686Z,0
2018-01-23T22:46:55.680Z,0
2018-01-23T22:56:55.725Z,0
2018-01-23T23:06:55.704Z,0
2018-01-23T23:16:55.769Z,0
2018-01-23T23:26:55.775Z,0
2018-01-23T23:36:55.768Z,0
2018-01-23T23:46:55.672Z,0
2018-01-23T23:56:55.803Z,0
